Time;durP1;ratioP1;P1;durP2;ratioP2;P2;SDS_P1;SDS_P2;PMS_P1;PMS_P2;Temp;Humidity;BMP_temperature;BMP_pressure;BME280_temperature;BME280_humidity;BME280_pressure;Samples;Min_cycle;Max_cycle;Signal;HPM_P1;HPM_P2
2022/03/26 00:01:54;;;;;;;39.05;16.95;;;;;;;6.50;52.49;99803.19;5045566;28;20021;-72
2022/03/26 00:04:20;;;;;;;43.20;16.88;;;;;;;6.60;52.51;99829.97;5041353;28;20097;-72
2022/03/26 00:06:45;;;;;;;35.83;16.83;;;;;;;6.47;52.46;99819.63;5038947;28;20215;-71
2022/03/26 00:09:10;;;;;;;42.10;18.05;;;;;;;6.44;53.54;99827.13;5028541;28;20017;-71
2022/03/26 00:11:35;;;;;;;39.28;17.20;;;;;;;6.19;53.55;99791.94;5022215;28;20025;-72
2022/03/26 00:14:01;;;;;;;44.38;18.45;;;;;;;6.20;54.27;99825.84;5031990;28;20455;-71
2022/03/26 00:16:26;;;;;;;35.53;17.27;;;;;;;5.91;54.57;99810.69;5024122;28;20029;-71
2022/03/26 00:18:52;;;;;;;37.30;18.15;;;;;;;6.19;54.22;99826.03;5029331;28;20029;-71
2022/03/26 00:21:17;;;;;;;36.60;17.08;;;;;;;6.18;54.79;99833.22;5019549;28;20029;-71
2022/03/26 00:23:43;;;;;;;39.75;16.60;;;;;;;6.21;53.88;99824.88;5027374;28;20119;-71
2022/03/26 00:26:10;;;;;;;35.30;17.90;;;;;;;6.28;54.21;99839.38;5028946;28;20056;-71
2022/03/26 00:28:37;;;;;;;42.30;16.85;;;;;;;6.16;55.02;99843.28;5011348;28;20495;-71
2022/03/26 00:31:03;;;;;;;41.42;18.63;;;;;;;6.13;54.77;99846.25;5036398;22;20083;-67
2022/03/26 00:33:29;;;;;;;38.65;17.77;;;;;;;5.97;55.47;99836.16;5040955;28;20029;-67
2022/03/26 00:35:56;;;;;;;38.25;17.17;;;;;;;5.79;55.68;99809.22;5050915;28;20402;-65
2022/03/26 00:38:22;;;;;;;42.05;16.95;;;;;;;5.94;56.67;99841.81;5050393;28;20490;-67
2022/03/26 00:40:47;;;;;;;39.28;17.15;;;;;;;6.03;55.74;99835.56;5044161;28;20032;-65
2022/03/26 00:43:13;;;;;;;35.83;17.50;;;;;;;6.14;55.29;99843.44;5030865;28;20063;-67
2022/03/26 00:45:39;;;;;;;36.22;17.02;;;;;;;6.15;55.21;99839.72;5029408;28;20080;-67
2022/03/26 00:48:05;;;;;;;35.88;17.42;;;;;;;6.23;55.27;99836.28;5036513;28;20510;-66
2022/03/26 00:50:30;;;;;;;36.88;17.77;;;;;;;6.22;55.25;99831.94;5035045;28;20061;-68
2022/03/26 00:52:55;;;;;;;42.33;18.90;;;;;;;6.13;56.24;99836.38;5023662;28;20406;-66
2022/03/26 00:55:21;;;;;;;40.33;18.80;;;;;;;6.08;56.12;99838.66;5041221;28;20026;-66
2022/03/26 00:57:47;;;;;;;44.22;19.58;;;;;;;6.09;55.45;99840.34;5031939;28;20514;-66
2022/03/26 01:00:12;;;;;;;42.60;18.20;;;;;;;6.11;55.54;99834.84;5031458;28;20029;-69
2022/03/26 01:02:38;;;;;;;41.13;17.67;;;;;;;5.91;56.42;99836.72;5030315;28;20029;-67
2022/03/26 01:05:04;;;;;;;46.63;18.75;;;;;;;5.82;56.90;99838.47;5043148;28;20083;-68
2022/03/26 01:07:30;;;;;;;42.72;18.42;;;;;;;5.70;57.19;99839.63;5024013;28;20105;-66
2022/03/26 01:09:56;;;;;;;39.33;17.88;;;;;;;5.55;57.34;99830.34;5036681;28;20187;-66
2022/03/26 01:12:23;;;;;;;40.58;18.35;;;;;;;5.44;58.28;99839.41;5033453;28;20025;-66
2022/03/26 01:14:50;;;;;;;39.42;17.77;;;;;;;5.31;58.68;99841.56;5029270;28;20057;-66
2022/03/26 01:17:15;;;;;;;42.28;18.98;;;;;;;5.24;59.26;99844.84;5027504;28;20074;-66
2022/03/26 01:19:41;;;;;;;40.33;18.17;;;;;;;5.22;59.45;99843.28;5024548;28;20029;-66
2022/03/26 01:22:06;;;;;;;39.42;18.20;;;;;;;5.21;58.89;99836.22;5032389;28;20478;-66
2022/03/26 01:24:32;;;;;;;39.45;17.15;;;;;;;5.09;59.76;99840.91;5025146;28;20069;-66
2022/03/26 01:26:57;;;;;;;40.50;18.05;;;;;;;5.01;60.06;99841.59;5023888;28;20394;-65
2022/03/26 01:29:23;;;;;;;38.10;17.38;;;;;;;4.77;59.73;99817.91;5038202;28;20026;-67
2022/03/26 01:31:49;;;;;;;38.92;18.27;;;;;;;4.94;60.36;99845.00;5037632;28;20037;-67
2022/03/26 01:34:15;;;;;;;37.00;17.15;;;;;;;4.90;60.52;99847.13;5022200;28;20028;-67
2022/03/26 01:36:40;;;;;;;41.65;17.52;;;;;;;4.86;60.97;99840.34;5046019;28;20043;-67
2022/03/26 01:39:06;;;;;;;39.85;17.85;;;;;;;4.75;60.99;99838.66;5052938;28;20025;-67
2022/03/26 01:41:31;;;;;;;42.70;17.83;;;;;;;4.72;61.69;99838.09;5051674;28;20043;-65
2022/03/26 01:43:56;;;;;;;39.97;18.35;;;;;;;4.70;61.66;99840.06;5035310;28;20111;-67
2022/03/26 01:46:22;;;;;;;43.22;17.85;;;;;;;4.76;61.70;99812.69;5039113;28;20451;-66
2022/03/26 01:48:48;;;;;;;38.42;17.85;;;;;;;4.81;61.47;99807.75;5024630;28;20094;-66
2022/03/26 01:51:14;;;;;;;41.60;19.60;;;;;;;4.81;62.46;99831.88;5033074;28;20479;-69
2022/03/26 01:53:50;;;;;;;46.45;20.08;;;;;;;4.43;62.03;99806.75;5023638;28;20025;-69
2022/03/26 01:56:16;;;;;;;41.00;19.13;;;;;;;4.44;63.16;99840.59;5029227;28;20108;-69
2022/03/26 01:58:43;;;;;;;40.80;18.38;;;;;;;4.17;63.62;99838.56;5030256;28;20029;-66
2022/03/26 02:01:08;;;;;;;42.38;19.77;;;;;;;4.23;64.60;99837.16;5031542;28;20021;-67
2022/03/26 02:03:35;;;;;;;37.83;17.88;;;;;;;4.32;64.22;99839.00;5027788;28;20075;-69
2022/03/26 02:06:00;;;;;;;38.53;19.65;;;;;;;4.25;63.93;99835.19;5027081;28;20056;-69
2022/03/26 02:08:25;;;;;;;41.85;17.90;;;;;;;3.98;64.01;99793.81;5034162;28;20026;-66
2022/03/26 02:10:51;;;;;;;46.78;17.88;;;;;;;4.26;64.46;99828.84;5038086;28;20033;-67
2022/03/26 02:13:16;;;;;;;36.22;16.83;;;;;;;4.11;64.55;99820.34;5033054;28;20094;-65
2022/03/26 02:15:42;;;;;;;41.55;18.25;;;;;;;4.02;64.27;99829.22;5032483;28;20033;-67
2022/03/26 02:18:09;;;;;;;37.10;16.52;;;;;;;3.97;65.04;99826.09;5030005;28;20387;-67
2022/03/26 02:20:35;;;;;;;36.03;16.63;;;;;;;3.86;65.18;99813.66;5030987;28;20021;-67
2022/03/26 02:23:01;;;;;;;39.10;16.48;;;;;;;3.72;64.94;99815.72;5031442;28;20033;-67
2022/03/26 02:25:27;;;;;;;38.33;17.45;;;;;;;3.91;64.75;99835.53;5028181;28;20041;-66
2022/03/26 02:27:52;;;;;;;37.13;17.10;;;;;;;4.01;65.24;99833.72;5025732;28;20016;-66
2022/03/26 02:30:18;;;;;;;36.33;17.08;;;;;;;3.67;65.16;99798.38;5033215;28;20032;-67
2022/03/26 02:32:43;;;;;;;35.72;16.83;;;;;;;3.90;65.34;99834.69;5033942;28;20021;-67
2022/03/26 02:35:09;;;;;;;45.35;18.08;;;;;;;4.12;65.58;99830.09;5033285;28;20117;-66
2022/03/26 02:37:34;;;;;;;39.00;16.77;;;;;;;4.13;65.59;99832.63;5028894;28;20033;-69
2022/03/26 02:40:02;;;;;;;38.08;16.98;;;;;;;4.05;65.72;99826.25;5032572;28;20548;-69
2022/03/26 02:42:28;;;;;;;42.20;17.75;;;;;;;3.86;66.84;99829.72;5025538;28;20022;-69
2022/03/26 02:44:53;;;;;;;42.08;17.90;;;;;;;3.76;67.48;99823.47;5024049;28;20133;-69
2022/03/26 02:47:18;;;;;;;36.47;17.10;;;;;;;3.59;67.56;99815.09;5020371;28;20037;-67
2022/03/26 02:49:44;;;;;;;42.00;18.73;;;;;;;3.73;67.19;99830.78;5021373;28;20053;-68
2022/03/26 02:52:09;;;;;;;39.55;17.83;;;;;;;3.78;67.13;99824.19;5029158;28;20372;-67
2022/03/26 02:54:35;;;;;;;35.22;16.05;;;;;;;3.96;66.48;99825.25;5030602;28;20483;-68
2022/03/26 02:57:01;;;;;;;33.22;16.27;;;;;;;3.94;66.21;99820.03;5029973;28;20108;-68
2022/03/26 02:59:26;;;;;;;36.70;17.45;;;;;;;3.76;66.94;99816.28;5030029;28;21807;-68
2022/03/26 03:01:52;;;;;;;36.92;17.50;;;;;;;3.43;67.21;99778.16;5038569;28;20028;-67
2022/03/26 03:04:18;;;;;;;39.00;17.63;;;;;;;3.55;67.76;99824.38;5024609;28;20025;-68
2022/03/26 03:06:43;;;;;;;36.42;17.02;;;;;;;3.34;67.96;99819.03;5033664;28;20026;-68
2022/03/26 03:09:09;;;;;;;40.90;17.98;;;;;;;3.32;68.87;99810.31;5024839;28;20040;-67
2022/03/26 03:11:35;;;;;;;34.70;16.10;;;;;;;3.32;68.36;99822.84;5033759;28;20470;-67
2022/03/26 03:14:02;;;;;;;33.28;15.73;;;;;;;3.15;67.78;99793.03;5030555;28;20021;-68
2022/03/26 03:16:27;;;;;;;39.15;17.45;;;;;;;3.27;69.02;99825.91;5035363;28;20146;-68
2022/03/26 03:18:53;;;;;;;37.28;17.30;;;;;;;2.94;68.61;99784.19;5023360;28;20481;-68
2022/03/26 03:21:18;;;;;;;37.08;17.00;;;;;;;2.90;69.43;99798.78;5028232;28;20048;-67
2022/03/26 03:23:44;;;;;;;41.03;18.23;;;;;;;2.82;70.56;99794.91;5027375;28;20021;-68
2022/03/26 03:26:10;;;;;;;42.13;18.02;;;;;;;3.11;69.85;99825.50;5029113;28;20318;-67
2022/03/26 03:28:36;;;;;;;40.03;18.13;;;;;;;3.24;70.08;99826.16;5031213;28;20112;-68
2022/03/26 03:31:01;;;;;;;33.38;16.25;;;;;;;3.22;69.29;99831.66;5034445;28;20112;-67
2022/03/26 03:33:26;;;;;;;37.42;17.17;;;;;;;3.24;69.75;99828.84;5039546;28;20044;-67
2022/03/26 03:35:53;;;;;;;36.42;16.95;;;;;;;3.11;70.90;99814.81;5035424;28;20041;-67
2022/03/26 03:38:18;;;;;;;35.88;17.30;;;;;;;3.23;70.69;99836.00;5035255;28;20025;-66
2022/03/26 03:40:43;;;;;;;32.95;16.15;;;;;;;2.90;70.04;99794.28;5029598;28;20032;-68
2022/03/26 03:43:09;;;;;;;40.83;17.50;;;;;;;2.96;71.03;99819.63;5032403;28;20383;-67
2022/03/26 03:45:34;;;;;;;37.53;16.90;;;;;;;2.92;71.18;99824.41;5038002;28;20025;-67
2022/03/26 03:48:00;;;;;;;36.42;16.60;;;;;;;2.84;71.42;99824.19;5038194;28;20492;-67
2022/03/26 03:50:25;;;;;;;39.88;16.25;;;;;;;2.83;71.62;99830.53;5043924;28;20028;-66
2022/03/26 03:52:51;;;;;;;37.20;15.82;;;;;;;2.77;72.10;99826.53;5037905;28;20446;-68
2022/03/26 03:55:16;;;;;;;40.05;17.65;;;;;;;2.76;72.30;99819.50;5027301;28;20037;-68
2022/03/26 03:57:43;;;;;;;34.92;16.58;;;;;;;2.85;72.10;99834.75;5041172;28;20088;-67
2022/03/26 04:00:10;;;;;;;35.92;16.40;;;;;;;2.59;72.67;99796.00;5032675;28;20026;-67
2022/03/26 04:02:36;;;;;;;46.58;16.73;;;;;;;2.84;72.06;99826.88;5038117;28;20053;-70
2022/03/26 04:05:01;;;;;;;42.90;16.35;;;;;;;2.84;72.58;99817.03;5035627;28;20068;-67
2022/03/26 04:07:26;;;;;;;37.95;17.00;;;;;;;2.77;71.96;99790.94;5035819;28;20075;-68
2022/03/26 04:09:51;;;;;;;43.97;17.10;;;;;;;2.96;72.17;99825.84;5039589;28;20087;-67
2022/03/26 04:12:17;;;;;;;41.00;17.35;;;;;;;2.80;72.46;99793.34;5029740;28;20488;-68
2022/03/26 04:14:43;;;;;;;40.58;17.73;;;;;;;2.84;72.36;99811.69;5035803;28;20091;-67
2022/03/26 04:17:08;;;;;;;42.08;17.00;;;;;;;2.87;71.74;99820.44;5035081;28;20501;-69
2022/03/26 04:19:34;;;;;;;33.25;16.00;;;;;;;2.83;71.38;99826.03;5034294;28;20108;-68
2022/03/26 04:21:59;;;;;;;44.40;17.27;;;;;;;2.80;72.40;99828.09;5038613;28;20120;-68
2022/03/26 04:24:24;;;;;;;38.80;16.15;;;;;;;2.37;72.93;99786.25;5031609;28;20033;-68
2022/03/26 04:26:50;;;;;;;44.47;17.35;;;;;;;2.54;73.05;99830.25;5033371;28;20037;-67
2022/03/26 04:29:16;;;;;;;38.58;17.20;;;;;;;2.54;73.85;99838.28;5030654;28;20034;-68
2022/03/26 04:31:41;;;;;;;41.20;18.35;;;;;;;2.45;74.17;99825.69;5037047;28;20041;-70
2022/03/26 04:34:06;;;;;;;39.75;17.00;;;;;;;2.30;73.52;99801.09;5031941;28;20025;-70
2022/03/26 04:36:32;;;;;;;44.03;19.88;;;;;;;2.44;73.93;99829.31;5033667;28;20067;-68
2022/03/26 04:38:58;;;;;;;36.95;17.55;;;;;;;2.41;73.96;99833.97;5035500;28;20033;-68
2022/03/26 04:41:24;;;;;;;37.78;17.15;;;;;;;2.39;73.84;99833.22;5031502;28;20057;-68
2022/03/26 04:43:50;;;;;;;35.08;16.00;;;;;;;2.33;74.18;99835.53;5024157;28;20034;-68
2022/03/26 04:46:15;;;;;;;38.55;16.33;;;;;;;2.02;74.40;99814.03;5040933;28;20034;-68
2022/03/26 04:48:41;;;;;;;39.72;15.48;;;;;;;2.06;75.27;99826.13;5040806;28;20025;-67
2022/03/26 04:51:07;;;;;;;36.08;15.18;;;;;;;1.91;75.91;99833.59;5032280;28;20082;-65
2022/03/26 04:53:32;;;;;;;35.03;14.85;;;;;;;1.74;75.41;99824.22;5031916;28;20028;-68
2022/03/26 04:55:57;;;;;;;33.22;15.48;;;;;;;1.72;76.47;99828.84;5033862;28;20033;-68
2022/03/26 04:58:23;;;;;;;41.47;15.02;;;;;;;1.53;76.81;99813.44;5028525;28;20033;-68
2022/03/26 05:00:48;;;;;;;34.60;14.77;;;;;;;1.53;76.99;99840.13;5021938;28;20116;-68
2022/03/26 05:03:13;;;;;;;41.60;14.73;;;;;;;1.72;77.11;99841.34;5040603;28;20018;-68
2022/03/26 05:05:39;;;;;;;39.17;15.98;;;;;;;1.65;77.37;99832.97;5027067;28;20028;-68
2022/03/26 05:08:04;;;;;;;35.45;15.07;;;;;;;1.83;77.10;99841.31;5024480;28;20030;-68
2022/03/26 05:10:30;;;;;;;31.85;13.80;;;;;;;1.84;76.89;99847.53;5029838;28;20021;-68
2022/03/26 05:12:57;;;;;;;38.08;16.77;;;;;;;1.93;76.83;99847.63;5036686;28;20044;-68
2022/03/26 05:15:24;;;;;;;31.35;14.63;;;;;;;1.96;75.84;99858.09;5032737;28;20025;-68
2022/03/26 05:17:51;;;;;;;32.95;14.88;;;;;;;1.86;76.10;99846.44;5028421;28;20044;-67
2022/03/26 05:20:17;;;;;;;34.83;15.48;;;;;;;1.64;76.00;99806.41;5027622;28;20043;-69
2022/03/26 05:22:45;;;;;;;32.90;15.88;;;;;;;1.98;75.80;99857.94;5040296;28;20025;-68
2022/03/26 05:25:11;;;;;;;35.75;14.90;;;;;;;1.89;75.97;99848.00;5031801;28;20376;-66
2022/03/26 05:27:37;;;;;;;38.80;16.55;;;;;;;2.00;76.33;99857.84;5031079;28;20061;-68
2022/03/26 05:30:06;;;;;;;30.98;14.95;;;;;;;1.97;76.20;99838.41;5032408;28;20025;-76
2022/03/26 05:32:32;;;;;;;37.25;15.07;;;;;;;1.98;76.26;99837.44;5042222;28;20037;-76
2022/03/26 05:34:57;;;;;;;40.22;16.27;;;;;;;2.05;75.72;99829.78;5050750;28;20030;-77
2022/03/26 05:37:23;;;;;;;34.75;15.27;;;;;;;2.07;75.39;99821.66;5044711;28;20013;-75
2022/03/26 05:39:48;;;;;;;32.35;15.23;;;;;;;2.05;75.22;99813.78;5060966;28;20073;-77
2022/03/26 05:42:14;;;;;;;38.10;16.42;;;;;;;2.42;74.37;99865.03;5064342;28;20005;-75
2022/03/26 05:44:40;;;;;;;36.38;15.57;;;;;;;2.60;73.28;99835.13;5059576;28;20013;-77
2022/03/26 05:47:06;;;;;;;37.70;14.65;;;;;;;3.44;69.43;99814.59;5047788;28;20057;-78
2022/03/26 05:49:32;;;;;;;33.30;14.20;;;;;;;4.84;65.08;99850.34;5036981;28;20032;-78
2022/03/26 05:51:57;;;;;;;32.10;14.95;;;;;;;5.68;61.65;99838.91;5039411;28;20029;-78
2022/03/26 05:54:22;;;;;;;35.38;14.27;;;;;;;6.19;60.06;99850.22;5051592;28;20048;-76
2022/03/26 05:56:54;;;;;;;39.05;14.55;;;;;;;6.98;56.45;99874.56;5032002;28;20026;-67
2022/03/26 05:59:23;;;;;;;30.02;14.63;;;;;;;7.48;54.75;99883.91;5028737;28;20032;-76
2022/03/26 06:01:48;;;;;;;31.48;14.02;;;;;;;7.89;53.93;99884.19;5029640;28;20394;-75
2022/03/26 06:04:14;;;;;;;75.20;24.42;;;;;;;8.19;52.10;99879.28;5014123;28;20037;-71
2022/03/26 06:06:40;;;;;;;84.25;28.38;;;;;;;8.49;51.77;99878.78;5022529;28;20024;-72
2022/03/26 06:09:05;;;;;;;58.10;23.23;;;;;;;9.29;49.94;99883.63;5035429;28;20103;-72
2022/03/26 06:11:30;;;;;;;33.53;16.30;;;;;;;9.75;47.54;99875.00;5013330;28;20022;-72
2022/03/26 06:13:56;;;;;;;34.33;15.57;;;;;;;9.84;47.48;99904.50;5012138;28;20037;-73
2022/03/26 06:16:22;;;;;;;33.97;15.40;;;;;;;10.07;46.75;99876.75;5027643;28;20093;-71
2022/03/26 06:18:47;;;;;;;29.67;15.52;;;;;;;10.67;44.62;99895.16;5028922;28;20120;-67
2022/03/26 06:21:13;;;;;;;42.28;16.25;;;;;;;10.19;45.67;99905.13;5028356;28;20447;-67
2022/03/26 06:23:38;;;;;;;34.53;16.10;;;;;;;10.69;44.64;99900.38;5027629;28;20028;-67
2022/03/26 06:26:03;;;;;;;30.27;15.30;;;;;;;11.03;44.15;99900.00;5038350;28;20441;-67
2022/03/26 06:28:29;;;;;;;37.75;15.98;;;;;;;11.37;43.34;99898.72;5032405;28;20449;-65
2022/03/26 06:30:54;;;;;;;33.03;17.08;;;;;;;11.68;42.68;99892.38;5027565;28;20041;-65
2022/03/26 06:33:19;;;;;;;34.60;16.92;;;;;;;12.00;42.75;99916.50;5024212;28;20045;-65
2022/03/26 06:35:45;;;;;;;34.97;16.70;;;;;;;12.67;40.95;99909.28;5017850;28;20060;-64
2022/03/26 06:38:12;;;;;;;43.75;18.33;;;;;;;12.86;40.71;99913.25;5022811;28;20029;-64
2022/03/26 06:40:38;;;;;;;33.85;17.00;;;;;;;13.47;39.33;99907.47;5023776;28;20021;-64
2022/03/26 06:43:05;;;;;;;37.33;16.42;;;;;;;14.06;38.35;99907.09;5022340;28;20053;-75
2022/03/26 06:45:30;;;;;;;31.05;16.05;;;;;;;14.16;37.22;99899.41;5025025;28;20387;-73
2022/03/26 06:47:56;;;;;;;34.90;16.23;;;;;;;15.85;35.06;99906.91;5038636;28;20035;-66
2022/03/26 06:50:21;;;;;;;30.55;15.95;;;;;;;16.06;34.63;99899.50;5030400;28;20067;-67
2022/03/26 06:52:46;;;;;;;30.58;16.02;;;;;;;16.09;35.37;99901.84;5027436;28;20506;-66
2022/03/26 06:55:12;;;;;;;33.75;17.33;;;;;;;16.40;33.77;99899.25;5027157;28;20033;-66
2022/03/26 06:57:38;;;;;;;34.85;17.65;;;;;;;17.02;32.92;99877.75;5030466;28;20021;-67
2022/03/26 07:00:05;;;;;;;31.45;15.68;;;;;;;17.56;32.25;99908.34;5026270;28;20360;-67
2022/03/26 07:02:31;;;;;;;34.65;17.92;;;;;;;17.97;31.60;99898.75;5046537;28;20062;-66
2022/03/26 07:04:56;;;;;;;34.28;17.90;;;;;;;18.48;30.65;99907.75;5032142;28;20443;-66
2022/03/26 07:07:21;;;;;;;32.45;18.15;;;;;;;18.48;30.60;99903.09;5031786;28;20083;-67
2022/03/26 07:09:47;;;;;;;31.60;18.10;;;;;;;19.12;29.19;99865.16;5028172;28;20100;-66
2022/03/26 07:12:12;;;;;;;33.08;17.35;;;;;;;19.91;28.49;99907.03;5039984;28;20035;-66
2022/03/26 07:14:38;;;;;;;28.40;16.65;;;;;;;20.58;27.82;99895.66;5035497;28;20025;-66
2022/03/26 07:17:04;;;;;;;36.35;18.30;;;;;;;20.50;27.58;99915.25;5042092;28;20032;-66
2022/03/26 07:19:29;;;;;;;30.48;16.48;;;;;;;21.31;27.02;99911.69;5031964;28;20558;-68
2022/03/26 07:21:54;;;;;;;29.52;16.65;;;;;;;20.94;26.93;99910.16;5028145;28;20033;-66
2022/03/26 07:24:20;;;;;;;28.20;16.00;;;;;;;20.45;26.98;99915.13;5030888;28;20036;-68
2022/03/26 07:26:45;;;;;;;28.80;17.00;;;;;;;20.02;27.94;99899.06;5038146;28;20487;-66
2022/03/26 07:29:10;;;;;;;28.45;16.70;;;;;;;21.63;26.51;99912.84;5035214;28;20555;-67
2022/03/26 07:31:35;;;;;;;29.10;16.42;;;;;;;21.69;25.42;99921.19;5027334;28;20037;-67
2022/03/26 07:34:01;;;;;;;28.45;16.42;;;;;;;22.29;25.14;99909.50;5027505;28;20072;-67
2022/03/26 07:36:26;;;;;;;26.42;16.67;;;;;;;21.93;26.06;99914.47;5030218;28;20029;-67
2022/03/26 07:38:52;;;;;;;29.48;16.30;;;;;;;23.11;24.69;99905.94;5029084;28;20549;-72
2022/03/26 07:41:17;;;;;;;33.53;17.10;;;;;;;22.60;24.82;99923.75;5012714;28;20026;-73
2022/03/26 07:43:43;;;;;;;34.47;17.63;;;;;;;22.92;24.48;99901.78;5015694;28;20052;-73
2022/03/26 07:46:08;;;;;;;30.90;15.95;;;;;;;23.76;23.61;99914.31;5026809;28;20079;-73
2022/03/26 07:48:34;;;;;;;27.13;17.77;;;;;;;23.90;23.74;99895.38;5038968;28;20061;-71
2022/03/26 07:51:00;;;;;;;27.63;17.27;;;;;;;25.08;22.48;99908.78;5028394;28;20036;-75
2022/03/26 07:53:27;;;;;;;31.27;17.70;;;;;;;24.75;22.32;99892.59;5035086;28;20049;-74
2022/03/26 07:55:53;;;;;;;24.88;16.60;;;;;;;25.79;21.76;99910.03;5032288;28;20032;-74
2022/03/26 07:58:19;;;;;;;23.83;16.50;;;;;;;25.34;21.44;99893.06;5033920;28;20038;-73
2022/03/26 08:00:44;;;;;;;27.30;16.83;;;;;;;25.23;22.13;99921.00;5031015;28;20022;-73
2022/03/26 08:03:10;;;;;;;28.75;15.77;;;;;;;25.53;21.80;99923.03;5030480;28;20064;-70
2022/03/26 08:05:37;;;;;;;24.48;16.42;;;;;;;25.70;21.67;99912.53;5030199;28;20137;-70
2022/03/26 08:08:03;;;;;;;29.13;16.85;;;;;;;26.02;21.13;99911.44;5018004;28;20049;-71
2022/03/26 08:10:28;;;;;;;24.55;16.08;;;;;;;25.94;21.35;99912.84;5026718;28;20515;-71
2022/03/26 08:12:53;;;;;;;27.77;16.13;;;;;;;26.26;21.36;99892.25;5033278;28;20063;-71
2022/03/26 08:15:19;;;;;;;25.00;15.93;;;;;;;25.75;21.82;99917.22;5042160;28;20040;-73
2022/03/26 08:17:44;;;;;;;27.88;15.75;;;;;;;25.46;22.51;99914.97;5040575;28;20450;-76
2022/03/26 08:20:10;;;;;;;22.92;14.98;;;;;;;26.82;21.13;99908.75;5033650;28;20390;-73
2022/03/26 08:22:35;;;;;;;26.13;16.58;;;;;;;26.31;21.11;99895.03;5033035;28;20026;-73
2022/03/26 08:25:01;;;;;;;29.50;15.63;;;;;;;27.23;20.67;99922.50;5027425;28;20147;-73
2022/03/26 08:27:26;;;;;;;25.88;17.30;;;;;;;25.60;21.38;99912.50;5035092;28;20041;-75
2022/03/26 08:29:52;;;;;;;28.10;16.55;;;;;;;26.67;20.69;99917.16;5037269;28;20387;-73
2022/03/26 08:32:18;;;;;;;26.50;16.77;;;;;;;27.55;20.36;99929.50;5044202;28;20388;-73
2022/03/26 08:34:44;;;;;;;24.40;15.88;;;;;;;27.73;19.86;99914.94;5034840;28;20022;-72
2022/03/26 08:37:10;;;;;;;25.02;15.80;;;;;;;28.93;19.17;99917.09;5027551;28;20025;-75
2022/03/26 08:39:36;;;;;;;29.65;17.15;;;;;;;28.10;18.64;99924.66;5032366;28;20033;-73
2022/03/26 08:42:01;;;;;;;28.77;16.83;;;;;;;27.69;19.83;99924.97;5022030;28;20079;-72
2022/03/26 08:44:26;;;;;;;25.65;16.27;;;;;;;27.20;20.89;99917.50;5036455;28;20036;-74
2022/03/26 08:46:52;;;;;;;27.05;17.35;;;;;;;27.69;20.48;99919.41;5034047;28;20390;-72
2022/03/26 08:49:17;;;;;;;27.10;17.27;;;;;;;28.64;18.78;99922.75;5040286;28;20099;-72
2022/03/26 08:51:42;;;;;;;26.10;17.02;;;;;;;28.56;19.05;99909.50;5033826;28;20399;-72
2022/03/26 08:54:08;;;;;;;24.58;16.98;;;;;;;28.72;19.00;99927.66;5027669;28;20097;-73
2022/03/26 08:56:34;;;;;;;26.90;16.27;;;;;;;28.31;18.78;99924.47;5037053;28;20043;-74
2022/03/26 08:58:59;;;;;;;26.83;16.92;;;;;;;28.60;19.29;99936.41;5044474;28;20122;-76
2022/03/26 09:01:25;;;;;;;32.95;17.02;;;;;;;28.93;19.25;99931.03;5023329;28;20026;-76
2022/03/26 09:03:50;;;;;;;24.70;17.02;;;;;;;29.36;18.18;99930.22;5029044;28;20058;-73
2022/03/26 09:06:17;;;;;;;27.00;17.63;;;;;;;29.16;18.59;99931.31;5032066;28;20372;-76
2022/03/26 09:08:42;;;;;;;24.45;16.13;;;;;;;28.89;18.73;99923.56;5040888;28;20025;-71
2022/03/26 09:11:07;;;;;;;27.60;16.65;;;;;;;29.44;17.90;99930.34;5033789;28;20516;-77
2022/03/26 09:13:33;;;;;;;25.30;16.80;;;;;;;30.94;16.94;99921.06;5031629;28;20013;-75
2022/03/26 09:15:59;;;;;;;25.75;16.83;;;;;;;30.19;18.03;99923.03;5030774;28;20087;-69
2022/03/26 09:18:25;;;;;;;25.00;17.27;;;;;;;30.82;17.38;99912.41;5027667;28;20037;-65
2022/03/26 09:20:51;;;;;;;30.90;18.27;;;;;;;30.12;17.27;99923.44;5029448;28;20040;-68
2022/03/26 09:23:17;;;;;;;31.30;19.63;;;;;;;30.32;17.66;99921.44;5036476;28;20026;-77
2022/03/26 09:25:43;;;;;;;26.30;16.67;;;;;;;31.44;16.56;99916.38;5037322;28;20053;-66
2022/03/26 09:28:09;;;;;;;29.92;18.17;;;;;;;31.08;17.05;99919.09;5033432;28;20029;-72
2022/03/26 09:30:36;;;;;;;26.85;16.90;;;;;;;29.40;17.61;99914.56;5033498;28;20458;-73
2022/03/26 09:33:01;;;;;;;23.75;17.25;;;;;;;30.63;17.28;99916.09;5028527;28;20036;-74
2022/03/26 09:35:27;;;;;;;29.75;17.52;;;;;;;31.52;17.20;99916.72;5027421;28;20033;-74
2022/03/26 09:37:52;;;;;;;24.60;16.58;;;;;;;32.36;16.49;99889.97;5022290;28;20021;-70
2022/03/26 09:40:20;;;;;;;25.60;16.73;;;;;;;32.78;16.21;99905.38;5021270;28;20052;-70
2022/03/26 09:42:45;;;;;;;30.90;19.13;;;;;;;32.40;15.90;99893.81;5044092;28;20467;-75
2022/03/26 09:45:11;;;;;;;30.55;19.52;;;;;;;32.19;15.22;99902.75;5033567;28;20032;-73
2022/03/26 09:47:37;;;;;;;29.17;18.88;;;;;;;33.02;16.00;99899.34;5024643;28;20036;-69
2022/03/26 09:50:05;;;;;;;33.97;19.48;;;;;;;32.94;15.80;99903.75;5034098;28;20029;-71
2022/03/26 09:52:30;;;;;;;27.65;18.30;;;;;;;32.79;15.73;99873.38;5034744;28;20700;-70
2022/03/26 09:54:57;;;;;;;25.52;18.25;;;;;;;32.07;16.42;99903.38;5028617;28;20087;-74
2022/03/26 09:57:22;;;;;;;24.60;17.20;;;;;;;32.69;14.97;99890.47;5025055;28;20394;-72
2022/03/26 09:59:47;;;;;;;24.58;17.05;;;;;;;33.22;14.63;99886.66;5029882;28;20037;-72
2022/03/26 10:02:13;;;;;;;25.38;17.50;;;;;;;31.75;15.54;99901.63;5027784;28;20033;-71
2022/03/26 10:04:40;;;;;;;26.58;18.17;;;;;;;30.19;16.53;99897.91;5038614;28;20499;-70
2022/03/26 10:07:06;;;;;;;25.83;17.15;;;;;;;31.85;16.53;99894.94;5025561;28;20029;-73
2022/03/26 10:09:35;;;;;;;26.35;16.73;;;;;;;30.28;16.52;99898.88;5034165;28;20040;-72
2022/03/26 10:12:09;;;;;;;24.58;16.58;;;;;;;31.18;16.60;99904.91;5040546;28;20031;-72
2022/03/26 10:14:37;;;;;;;28.35;16.35;;;;;;;32.72;16.26;99878.63;5025791;28;20017;-73
2022/03/26 10:17:10;;;;;;;29.58;17.35;;;;;;;31.37;17.06;99873.16;5038367;28;20029;-73
2022/03/26 10:19:36;;;;;;;29.33;17.20;;;;;;;31.38;16.56;99874.84;5036289;28;20425;-74
2022/03/26 10:22:01;;;;;;;25.75;17.23;;;;;;;31.03;17.33;99884.84;5024647;28;20021;-74
2022/03/26 10:24:28;;;;;;;27.67;16.63;;;;;;;29.86;17.50;99889.56;5029352;28;20112;-65
2022/03/26 10:26:54;;;;;;;23.98;15.98;;;;;;;30.05;15.72;99857.97;5033558;28;20029;-66
2022/03/26 10:29:19;;;;;;;24.60;15.68;;;;;;;30.19;15.29;99878.38;5026078;28;20034;-65
2022/03/26 10:34:28;;;;;;;42.67;22.63;;;;;;;29.90;15.25;99887.00;5030148;28;20025;-66
2022/03/26 10:36:53;;;;;;;31.15;18.45;;;;;;;29.55;15.63;99874.44;5035251;28;20026;-67
2022/03/26 10:39:27;;;;;;;61.67;28.33;;;;;;;29.19;15.69;99858.28;5037462;28;20026;-67
2022/03/26 10:41:54;;;;;;;89.63;37.42;;;;;;;28.55;15.89;99861.28;5026121;28;20037;-67
2022/03/26 10:44:24;;;;;;;27.50;17.67;;;;;;;29.53;16.30;99882.25;5031987;28;20065;-67
2022/03/26 10:46:57;;;;;;;28.27;18.00;;;;;;;29.09;15.68;99878.75;5022875;28;20073;-67
2022/03/26 10:49:36;;;;;;;23.33;16.88;;;;;;;28.58;15.79;99874.66;5026865;28;20021;-66
2022/03/26 10:52:13;;;;;;;23.83;16.38;;;;;;;28.75;15.33;99874.16;5027110;28;20037;-66
2022/03/26 10:54:38;;;;;;;32.17;19.45;;;;;;;29.05;16.12;99883.25;5019963;28;20049;-66
2022/03/26 10:57:05;;;;;;;24.23;16.83;;;;;;;28.99;15.21;99874.09;5020732;28;20109;-66
2022/03/26 10:59:32;;;;;;;37.83;21.67;;;;;;;29.08;15.36;99876.25;5024985;28;20068;-66
2022/03/26 11:02:01;;;;;;;58.35;24.50;;;;;;;28.62;15.56;99867.34;5035844;28;20037;-67
2022/03/26 11:04:28;;;;;;;23.25;16.08;;;;;;;29.68;15.06;99868.09;5032925;28;20025;-66
2022/03/26 11:06:57;;;;;;;107.30;44.78;;;;;;;29.76;14.48;99864.63;5038309;28;20060;-66
2022/03/26 11:09:25;;;;;;;130.10;55.25;;;;;;;29.45;14.06;99853.97;5039532;28;20025;-66
2022/03/26 11:11:50;;;;;;;19.95;14.23;;;;;;;29.86;13.36;99861.66;5041357;28;20383;-66
2022/03/26 11:14:37;;;;;;;22.85;15.25;;;;;;;28.61;14.85;99874.06;5034416;28;20028;-66
2022/03/26 11:17:11;;;;;;;20.95;14.98;;;;;;;29.05;15.21;99863.75;5030494;28;20041;-67
2022/03/26 11:20:00;;;;;;;24.77;15.65;;;;;;;29.22;14.61;99857.66;5028411;28;20025;-67